Time;durP1;ratioP1;P1;durP2;ratioP2;P2;SDS_P1;SDS_P2;PMS_P1;PMS_P2;Temp;Humidity;BMP_temperature;BMP_pressure;BME280_temperature;BME280_humidity;BME280_pressure;Samples;Min_cycle;Max_cycle;Signal;HPM_P1;HPM_P2
2022/08/25 00:00:14;;;;;;;0.00;0.00;;;;;;;;;;5012667;28;20077;-89
2022/08/25 00:02:40;;;;;;;0.00;0.00;;;;;;;;;;4996399;28;20081;-89
2022/08/25 00:05:06;;;;;;;0.00;0.00;;;;;;;;;;5014047;28;20053;-91
2022/08/25 00:07:32;;;;;;;0.00;0.00;;;;;;;;;;5013290;28;20049;-88
2022/08/25 00:09:58;;;;;;;0.00;0.00;;;;;;;;;;5014778;28;20121;-93
2022/08/25 00:12:25;;;;;;;0.00;0.00;;;;;;;;;;5013996;28;20045;-95
2022/08/25 00:14:51;;;;;;;0.00;0.00;;;;;;;;;;5014756;28;20061;-92
2022/08/25 00:17:18;;;;;;;0.00;0.00;;;;;;;;;;5012905;28;20520;-91
2022/08/25 00:19:44;;;;;;;0.00;0.00;;;;;;;;;;5013730;28;20057;-90
2022/08/25 00:22:10;;;;;;;0.00;0.00;;;;;;;;;;5012489;28;20492;-88
2022/08/25 00:24:36;;;;;;;0.00;0.00;;;;;;;;;;5012633;28;20050;-90
2022/08/25 00:27:02;;;;;;;0.00;0.00;;;;;;;;;;5013926;28;20115;-90
2022/08/25 00:29:30;;;;;;;0.00;0.00;;;;;;;;;;5012137;28;20126;-90
2022/08/25 00:31:56;;;;;;;0.00;0.00;;;;;;;;;;5012257;28;20050;-87
2022/08/25 00:34:25;;;;;;;0.00;0.00;;;;;;;;;;5013420;28;20117;-88
2022/08/25 00:36:51;;;;;;;0.00;0.00;;;;;;;;;;5012247;28;20112;-88
2022/08/25 00:39:19;;;;;;;0.00;0.00;;;;;;;;;;5011849;28;20117;-89
2022/08/25 00:41:47;;;;;;;0.00;0.00;;;;;;;;;;5013389;28;20044;-89
2022/08/25 00:44:16;;;;;;;0.00;0.00;;;;;;;;;;5012368;28;20045;-91
2022/08/25 00:46:47;;;;;;;0.00;0.00;;;;;;;;;;5013280;28;20065;-87
2022/08/25 00:49:14;;;;;;;0.00;0.00;;;;;;;;;;5012066;28;20061;-89
2022/08/25 00:51:47;;;;;;;0.00;0.00;;;;;;;;;;5013278;28;20169;-90
2022/08/25 00:54:16;;;;;;;0.00;0.00;;;;;;;;;;5013421;28;20046;-89
2022/08/25 00:56:42;;;;;;;0.00;0.00;;;;;;;;;;5011760;28;20057;-89
2022/08/25 00:59:08;;;;;;;0.00;0.00;;;;;;;;;;5013080;28;20039;-88
2022/08/25 01:01:35;;;;;;;0.00;0.00;;;;;;;;;;5013170;28;20042;-90
2022/08/25 01:04:01;;;;;;;0.00;0.00;;;;;;;;;;5012213;28;20095;-90
2022/08/25 01:06:29;;;;;;;0.00;0.00;;;;;;;;;;5011784;28;20041;-90
2022/08/25 01:08:55;;;;;;;0.00;0.00;;;;;;;;;;5013386;28;20161;-90
2022/08/25 01:11:21;;;;;;;0.00;0.00;;;;;;;;;;5011664;28;20129;-89
2022/08/25 01:13:50;;;;;;;0.00;0.00;;;;;;;;;;4995440;28;20042;-89
2022/08/25 01:16:17;;;;;;;0.00;0.00;;;;;;;;;;5011592;28;20064;-90
2022/08/25 01:18:48;;;;;;;0.00;0.00;;;;;;;;;;5011687;28;20045;-87
2022/08/25 01:21:14;;;;;;;0.00;0.00;;;;;;;;;;5011707;28;20489;-93
2022/08/25 01:23:40;;;;;;;0.00;0.00;;;;;;;;;;5013196;28;20111;-89
2022/08/25 01:26:10;;;;;;;0.00;0.00;;;;;;;;;;5011391;28;20504;-90
2022/08/25 01:28:36;;;;;;;0.00;0.00;;;;;;;;;;5011681;28;20107;-90
2022/08/25 01:31:03;;;;;;;0.00;0.00;;;;;;;;;;5011549;28;20076;-90
2022/08/25 01:33:30;;;;;;;0.00;0.00;;;;;;;;;;5012486;28;20045;-90
2022/08/25 01:35:56;;;;;;;0.00;0.00;;;;;;;;;;5011644;28;20133;-88
2022/08/25 01:38:22;;;;;;;0.00;0.00;;;;;;;;;;5013109;28;20061;-89
2022/08/25 01:40:48;;;;;;;0.00;0.00;;;;;;;;;;5011357;28;20055;-90
2022/08/25 01:43:14;;;;;;;0.00;0.00;;;;;;;;;;5011650;28;20049;-88
2022/08/25 01:45:42;;;;;;;0.00;0.00;;;;;;;;;;5011400;28;20050;-91
2022/08/25 01:48:08;;;;;;;0.00;0.00;;;;;;;;;;5012951;28;20543;-90
2022/08/25 01:50:34;;;;;;;0.00;0.00;;;;;;;;;;5011951;28;20053;-91
2022/08/25 01:53:22;;;;;;;0.00;0.00;;;;;;;;;;5014956;28;20057;-91
2022/08/25 01:55:51;;;;;;;0.00;0.00;;;;;;;;;;5015469;28;20069;-92
2022/08/25 01:58:18;;;;;;;0.00;0.00;;;;;;;;;;5015510;28;20050;-92
2022/08/25 02:00:46;;;;;;;0.00;0.00;;;;;;;;;;5015485;28;20388;-92
2022/08/25 02:03:12;;;;;;;0.00;0.00;;;;;;;;;;5015670;28;20073;-91
2022/08/25 02:05:38;;;;;;;0.00;0.00;;;;;;;;;;5015057;28;20045;-91
2022/08/25 02:08:04;;;;;;;0.65;0.00;;;;;;;;;;5015322;28;20061;-91
2022/08/25 02:10:31;;;;;;;0.00;0.00;;;;;;;;;;5016205;28;20057;-93
2022/08/25 02:12:58;;;;;;;0.00;0.00;;;;;;;;;;5016495;28;20094;-92
2022/08/25 02:15:24;;;;;;;0.00;0.00;;;;;;;;;;5017075;28;20060;-94
2022/08/25 02:17:50;;;;;;;0.00;0.00;;;;;;;;;;5015464;28;20042;-92
2022/08/25 02:20:16;;;;;;;0.00;0.00;;;;;;;;;;5021357;28;20038;-93
2022/08/25 02:22:42;;;;;;;0.00;0.00;;;;;;;;;;5017074;28;20477;-95
2022/08/25 02:25:09;;;;;;;0.00;0.00;;;;;;;;;;5015843;28;20046;-93
2022/08/25 02:27:35;;;;;;;0.00;0.00;;;;;;;;;;5015452;28;20125;-93
2022/08/25 02:30:01;;;;;;;0.00;0.00;;;;;;;;;;4999229;28;20045;-92
2022/08/25 02:32:27;;;;;;;0.00;0.00;;;;;;;;;;5015042;28;20104;-91
2022/08/25 02:34:53;;;;;;;0.00;0.00;;;;;;;;;;5016126;28;20046;-95
2022/08/25 02:37:19;;;;;;;0.00;0.00;;;;;;;;;;5014978;28;20050;-92
2022/08/25 02:39:45;;;;;;;0.00;0.00;;;;;;;;;;5014964;28;20068;-87
2022/08/25 02:42:12;;;;;;;0.00;0.00;;;;;;;;;;5014249;28;20081;-87
2022/08/25 02:44:38;;;;;;;0.00;0.00;;;;;;;;;;5015470;28;20049;-92
2022/08/25 02:47:04;;;;;;;0.00;0.00;;;;;;;;;;5014184;28;20050;-91
2022/08/25 02:49:30;;;;;;;0.00;0.00;;;;;;;;;;4997957;28;20551;-88
2022/08/25 02:51:59;;;;;;;0.00;0.00;;;;;;;;;;4997826;28;20053;-89
2022/08/25 02:54:25;;;;;;;0.00;0.00;;;;;;;;;;5014121;28;20053;-88
2022/08/25 02:56:51;;;;;;;0.00;0.00;;;;;;;;;;5013835;28;20405;-90
2022/08/25 02:59:18;;;;;;;0.00;0.00;;;;;;;;;;5014137;28;20042;-89
2022/08/25 03:01:44;;;;;;;0.00;0.00;;;;;;;;;;5013650;28;20046;-90
2022/08/25 03:04:10;;;;;;;0.00;0.00;;;;;;;;;;5013810;28;20050;-89
2022/08/25 03:06:36;;;;;;;0.00;0.00;;;;;;;;;;5013664;28;20096;-89
2022/08/25 03:09:02;;;;;;;0.00;0.00;;;;;;;;;;5014018;28;20353;-90
2022/08/25 03:11:28;;;;;;;0.00;0.00;;;;;;;;;;5014855;28;20042;-90
2022/08/25 03:13:55;;;;;;;0.00;0.00;;;;;;;;;;5015088;28;20034;-90
2022/08/25 03:16:21;;;;;;;0.00;0.00;;;;;;;;;;5013612;28;20461;-90
2022/08/25 03:18:47;;;;;;;0.00;0.00;;;;;;;;;;5013654;28;20042;-90
2022/08/25 03:21:13;;;;;;;0.00;0.00;;;;;;;;;;5013221;28;20046;-89
2022/08/25 03:23:40;;;;;;;0.00;0.00;;;;;;;;;;5013671;28;20121;-90
2022/08/25 03:28:51;;;;;;;0.00;0.00;;;;;;;;;;5014773;28;20416;-89
2022/08/25 03:31:18;;;;;;;0.00;0.00;;;;;;;;;;5013056;28;20473;-89
2022/08/25 03:33:44;;;;;;;0.00;0.00;;;;;;;;;;5013346;28;20061;-91
2022/08/25 03:36:11;;;;;;;0.00;0.00;;;;;;;;;;5013172;28;20050;-90
2022/08/25 03:38:37;;;;;;;0.00;0.00;;;;;;;;;;5013225;28;20048;-91
2022/08/25 03:41:11;;;;;;;0.00;0.00;;;;;;;;;;5014628;28;20555;-90
2022/08/25 03:43:37;;;;;;;0.00;0.00;;;;;;;;;;5012975;28;20046;-90
2022/08/25 03:46:03;;;;;;;0.00;0.00;;;;;;;;;;5012896;28;20058;-90
2022/08/25 03:48:29;;;;;;;0.00;0.00;;;;;;;;;;5015456;28;20053;-95
2022/08/25 03:50:55;;;;;;;0.00;0.00;;;;;;;;;;5017306;28;20121;-91
2022/08/25 03:53:21;;;;;;;0.00;0.00;;;;;;;;;;5012742;28;20046;-90
2022/08/25 03:55:47;;;;;;;0.00;0.00;;;;;;;;;;5013190;28;20485;-88
2022/08/25 03:58:14;;;;;;;0.00;0.00;;;;;;;;;;5012756;28;20046;-93
2022/08/25 04:00:40;;;;;;;0.00;0.00;;;;;;;;;;5013815;28;20133;-93
2022/08/25 04:03:06;;;;;;;0.00;0.00;;;;;;;;;;5013372;28;20038;-92
2022/08/25 04:05:32;;;;;;;0.00;0.00;;;;;;;;;;5014135;28;20065;-90
2022/08/25 04:08:00;;;;;;;0.00;0.00;;;;;;;;;;4996626;28;20077;-92
2022/08/25 04:10:26;;;;;;;0.00;0.00;;;;;;;;;;5012866;28;20068;-91
2022/08/25 04:12:52;;;;;;;0.00;0.00;;;;;;;;;;5012791;28;20045;-92
2022/08/25 04:15:18;;;;;;;0.00;0.00;;;;;;;;;;4995754;28;20037;-88
2022/08/25 04:17:44;;;;;;;0.00;0.00;;;;;;;;;;5012299;28;20048;-89
2022/08/25 04:20:11;;;;;;;0.00;0.00;;;;;;;;;;5013925;28;20030;-85
2022/08/25 04:22:37;;;;;;;0.00;0.00;;;;;;;;;;5012440;28;20046;-89
2022/08/25 04:25:03;;;;;;;0.00;0.00;;;;;;;;;;5012519;28;20096;-85
2022/08/25 04:27:29;;;;;;;0.00;0.00;;;;;;;;;;4999387;28;20045;-94
2022/08/25 04:29:55;;;;;;;0.00;0.00;;;;;;;;;;5169643;23;20084;-88
2022/08/25 04:32:21;;;;;;;0.00;0.00;;;;;;;;;;5032366;28;20448;-89
2022/08/25 04:34:48;;;;;;;0.00;0.00;;;;;;;;;;5033407;28;20060;-89
2022/08/25 04:37:14;;;;;;;0.00;0.00;;;;;;;;;;5033449;28;20120;-89
2022/08/25 04:39:40;;;;;;;0.00;0.00;;;;;;;;;;5032396;28;20053;-89
2022/08/25 04:42:06;;;;;;;0.00;0.00;;;;;;;;;;5033707;28;20041;-90
2022/08/25 04:44:32;;;;;;;0.00;0.00;;;;;;;;;;5031894;28;20102;-89
2022/08/25 04:46:58;;;;;;;0.00;0.00;;;;;;;;;;5032007;28;20045;-93
2022/08/25 04:49:24;;;;;;;0.00;0.00;;;;;;;;;;5031933;28;20056;-86
2022/08/25 04:51:50;;;;;;;0.00;0.00;;;;;;;;;;5031999;28;20126;-88
2022/08/25 04:54:20;;;;;;;0.00;0.00;;;;;;;;;;5032954;28;20185;-94
2022/08/25 04:56:47;;;;;;;0.25;0.00;;;;;;;;;;5015346;28;20054;-89
2022/08/25 04:59:14;;;;;;;0.00;0.00;;;;;;;;;;5033044;28;20033;-82
2022/08/25 05:01:41;;;;;;;0.00;0.00;;;;;;;;;;5032958;28;20037;-81
2022/08/25 05:04:08;;;;;;;0.00;0.00;;;;;;;;;;5031642;28;20477;-83
2022/08/25 05:06:34;;;;;;;0.00;0.00;;;;;;;;;;5032026;28;20480;-82
2022/08/25 05:09:00;;;;;;;0.00;0.00;;;;;;;;;;5031348;28;20045;-81
2022/08/25 05:11:27;;;;;;;0.00;0.00;;;;;;;;;;5031586;28;20069;-82
2022/08/25 05:13:54;;;;;;;0.00;0.00;;;;;;;;;;5031736;28;20092;-81
2022/08/25 05:16:21;;;;;;;0.00;0.00;;;;;;;;;;5031685;28;20373;-81
2022/08/25 05:18:47;;;;;;;0.00;0.00;;;;;;;;;;5032825;28;20122;-82
2022/08/25 05:21:14;;;;;;;0.00;0.00;;;;;;;;;;5031409;28;20048;-84
2022/08/25 05:23:40;;;;;;;0.00;0.00;;;;;;;;;;5031251;28;20042;-84
2022/08/25 05:26:09;;;;;;;0.00;0.00;;;;;;;;;;5034738;28;20460;-84
2022/08/25 05:28:35;;;;;;;0.00;0.00;;;;;;;;;;5035308;28;20103;-84
2022/08/25 05:31:03;;;;;;;0.00;0.00;;;;;;;;;;5035413;28;20088;-82
2022/08/25 05:33:29;;;;;;;0.00;0.00;;;;;;;;;;5035480;28;20052;-76
2022/08/25 05:35:55;;;;;;;0.00;0.00;;;;;;;;;;5035245;28;20045;-76
2022/08/25 05:38:21;;;;;;;0.00;0.00;;;;;;;;;;5035052;28;20048;-75
2022/08/25 05:40:47;;;;;;;0.00;0.00;;;;;;;;;;5035284;28;20124;-76
2022/08/25 05:43:14;;;;;;;0.00;0.00;;;;;;;;;;5034891;28;20518;-76
2022/08/25 05:45:41;;;;;;;0.00;0.00;;;;;;;;;;5035432;28;20045;-77
2022/08/25 05:48:07;;;;;;;0.00;0.00;;;;;;;;;;5034881;28;20045;-76
2022/08/25 05:50:33;;;;;;;0.00;0.00;;;;;;;;;;5035247;28;20127;-81
2022/08/25 05:52:59;;;;;;;0.00;0.00;;;;;;;;;;5034942;28;20041;-77
2022/08/25 05:55:25;;;;;;;0.00;0.00;;;;;;;;;;5036522;28;20415;-77
2022/08/25 05:57:51;;;;;;;0.00;0.00;;;;;;;;;;5036089;28;20056;-76
2022/08/25 06:00:17;;;;;;;0.00;0.00;;;;;;;;;;5036364;28;20044;-81
2022/08/25 06:02:45;;;;;;;0.00;0.00;;;;;;;;;;5034579;28;20459;-80
2022/08/25 06:05:12;;;;;;;0.00;0.00;;;;;;;;;;5034763;28;20045;-80
2022/08/25 06:07:39;;;;;;;0.00;0.00;;;;;;;;;;5034844;28;20531;-80
2022/08/25 06:10:06;;;;;;;0.00;0.00;;;;;;;;;;5036031;28;20041;-80
2022/08/25 06:12:34;;;;;;;0.00;0.00;;;;;;;;;;5035975;28;20083;-79
2022/08/25 06:15:00;;;;;;;0.00;0.00;;;;;;;;;;5035889;28;20069;-80
2022/08/25 06:17:26;;;;;;;0.00;0.00;;;;;;;;;;5035772;28;20440;-80
2022/08/25 06:19:56;;;;;;;0.00;0.00;;;;;;;;;;5034563;28;20037;-80
2022/08/25 06:22:24;;;;;;;0.00;0.00;;;;;;;;;;5034484;28;20042;-80
2022/08/25 06:24:50;;;;;;;0.00;0.00;;;;;;;;;;5034254;28;20056;-80
2022/08/25 06:27:16;;;;;;;0.00;0.00;;;;;;;;;;5035554;28;20064;-80
2022/08/25 06:29:42;;;;;;;0.00;0.00;;;;;;;;;;5033959;28;20061;-80
2022/08/25 06:32:08;;;;;;;0.00;0.00;;;;;;;;;;5035506;28;20049;-80
2022/08/25 06:34:34;;;;;;;0.00;0.00;;;;;;;;;;5035528;28;20041;-80
2022/08/25 06:37:00;;;;;;;0.00;0.00;;;;;;;;;;5033586;28;20077;-80
2022/08/25 06:39:26;;;;;;;0.00;0.00;;;;;;;;;;5035469;28;20076;-81
2022/08/25 06:41:53;;;;;;;0.00;0.00;;;;;;;;;;5035416;28;20041;-80
2022/08/25 06:44:19;;;;;;;0.00;0.00;;;;;;;;;;5035236;28;20037;-80
2022/08/25 06:46:46;;;;;;;0.00;0.00;;;;;;;;;;5034053;28;20074;-80
2022/08/25 06:49:12;;;;;;;0.00;0.00;;;;;;;;;;5034402;28;20057;-80
2022/08/25 06:51:38;;;;;;;0.00;0.00;;;;;;;;;;5035368;28;20048;-80
2022/08/25 06:54:05;;;;;;;0.00;0.00;;;;;;;;;;5035162;28;20041;-80
2022/08/25 06:56:31;;;;;;;0.00;0.00;;;;;;;;;;5033964;28;20125;-80
2022/08/25 06:58:57;;;;;;;0.00;0.00;;;;;;;;;;5034997;28;20120;-79
2022/08/25 07:01:25;;;;;;;0.00;0.00;;;;;;;;;;5035122;28;20108;-79
2022/08/25 07:03:53;;;;;;;0.00;0.00;;;;;;;;;;5033638;28;20068;-79
2022/08/25 07:06:19;;;;;;;0.00;0.00;;;;;;;;;;5033704;28;20041;-80
2022/08/25 07:08:46;;;;;;;0.00;0.00;;;;;;;;;;5033348;28;20056;-80
2022/08/25 07:11:16;;;;;;;0.00;0.00;;;;;;;;;;5034947;28;20053;-80
2022/08/25 07:13:42;;;;;;;0.00;0.00;;;;;;;;;;5034796;28;20041;-80
2022/08/25 07:16:10;;;;;;;0.00;0.00;;;;;;;;;;5034799;28;20037;-80
2022/08/25 07:18:36;;;;;;;0.00;0.00;;;;;;;;;;5033514;28;20124;-80
2022/08/25 07:21:02;;;;;;;0.00;0.00;;;;;;;;;;5034769;28;20080;-80
2022/08/25 07:23:28;;;;;;;0.00;0.00;;;;;;;;;;5033251;28;20064;-80
2022/08/25 07:25:55;;;;;;;0.00;0.00;;;;;;;;;;5034636;28;20179;-80
2022/08/25 07:28:22;;;;;;;0.00;0.00;;;;;;;;;;5033297;28;20440;-80
2022/08/25 07:30:49;;;;;;;0.00;0.00;;;;;;;;;;5033993;28;20046;-80
2022/08/25 07:33:15;;;;;;;0.00;0.00;;;;;;;;;;5034523;28;20076;-80
2022/08/25 07:35:41;;;;;;;0.00;0.00;;;;;;;;;;5032884;28;20037;-80
2022/08/25 07:38:08;;;;;;;0.00;0.00;;;;;;;;;;5034465;28;20049;-80
2022/08/25 07:40:35;;;;;;;0.00;0.00;;;;;;;;;;5032682;28;20117;-80
2022/08/25 07:43:04;;;;;;;0.00;0.00;;;;;;;;;;5032849;28;20095;-78
2022/08/25 07:45:31;;;;;;;0.00;0.00;;;;;;;;;;5032735;28;20049;-80
2022/08/25 07:47:59;;;;;;;0.00;0.00;;;;;;;;;;5033131;28;20080;-80
2022/08/25 07:50:25;;;;;;;0.00;0.00;;;;;;;;;;5031813;28;20540;-80
2022/08/25 07:52:51;;;;;;;0.00;0.00;;;;;;;;;;5032697;28;20041;-80
2022/08/25 07:55:17;;;;;;;0.00;0.00;;;;;;;;;;5032490;28;20041;-80
2022/08/25 07:57:43;;;;;;;0.00;0.00;;;;;;;;;;5032585;28;20041;-80
2022/08/25 08:00:10;;;;;;;0.00;0.00;;;;;;;;;;5032619;28;20473;-80
2022/08/25 08:02:39;;;;;;;0.00;0.00;;;;;;;;;;5032540;28;20477;-80
2022/08/25 08:05:06;;;;;;;0.00;0.00;;;;;;;;;;5033784;28;20037;-80
2022/08/25 08:07:31;;;;;;;0.00;0.00;;;;;;;;;;5032537;28;20049;-80
2022/08/25 08:09:58;;;;;;;0.00;0.00;;;;;;;;;;5033747;28;20042;-80
2022/08/25 08:12:25;;;;;;;0.00;0.00;;;;;;;;;;5032265;28;20049;-80
2022/08/25 08:14:52;;;;;;;0.00;0.00;;;;;;;;;;5032119;28;20049;-81
2022/08/25 08:17:18;;;;;;;0.00;0.00;;;;;;;;;;5032257;28;20045;-80
2022/08/25 08:19:44;;;;;;;0.00;0.00;;;;;;;;;;5032377;28;20381;-80
2022/08/25 08:22:13;;;;;;;0.00;0.00;;;;;;;;;;5015724;28;20052;-80
2022/08/25 08:24:39;;;;;;;0.00;0.00;;;;;;;;;;5033154;28;20050;-80
2022/08/25 08:27:07;;;;;;;0.00;0.00;;;;;;;;;;5032091;28;20448;-81
2022/08/25 08:29:33;;;;;;;0.00;0.00;;;;;;;;;;5033153;28;20065;-80
2022/08/25 08:31:59;;;;;;;0.00;0.00;;;;;;;;;;5031998;28;20064;-80
2022/08/25 08:34:25;;;;;;;0.00;0.00;;;;;;;;;;5033331;28;20052;-80
2022/08/25 08:36:51;;;;;;;0.00;0.00;;;;;;;;;;5033184;28;20045;-81
2022/08/25 08:39:17;;;;;;;0.00;0.00;;;;;;;;;;5031963;28;20392;-80
2022/08/25 08:44:46;;;;;;;0.00;0.00;;;;;;;;;;5032871;28;20477;-80
2022/08/25 08:47:21;;;;;;;0.00;0.00;;;;;;;;;;5031822;28;20064;-81
2022/08/25 08:50:05;;;;;;;0.17;0.00;;;;;;;;;;5031788;28;20088;-79
2022/08/25 08:52:45;;;;;;;0.00;0.00;;;;;;;;;;5033294;28;20247;-80
2022/08/25 08:55:32;;;;;;;0.00;0.00;;;;;;;;;;5032977;28;20091;-81
2022/08/25 08:58:00;;;;;;;0.00;0.00;;;;;;;;;;5032823;28;20045;-80
2022/08/25 09:00:27;;;;;;;0.00;0.00;;;;;;;;;;5032516;28;20120;-80
2022/08/25 09:02:56;;;;;;;0.20;0.00;;;;;;;;;;5031794;28;20041;-80
2022/08/25 09:05:23;;;;;;;0.00;0.00;;;;;;;;;;5031415;28;20045;-80
2022/08/25 09:08:00;;;;;;;0.00;0.00;;;;;;;;;;5032916;28;20396;-80
2022/08/25 09:10:32;;;;;;;0.00;0.00;;;;;;;;;;5032874;28;20045;-80
2022/08/25 09:13:04;;;;;;;0.00;0.00;;;;;;;;;;5031505;28;20554;-79
2022/08/25 09:18:29;;;;;;;0.00;0.00;;;;;;;;;;5029462;28;20055;-80
2022/08/25 09:21:08;;;;;;;0.00;0.00;;;;;;;;;;5030789;28;20049;-80
2022/08/25 09:23:38;;;;;;;0.00;0.00;;;;;;;;;;5031650;28;20048;-80
2022/08/25 09:26:24;;;;;;;0.00;0.00;;;;;;;;;;5031285;28;20055;-80
2022/08/25 09:28:50;;;;;;;0.00;0.00;;;;;;;;;;5033012;28;20043;-80
2022/08/25 09:31:21;;;;;;;0.00;0.00;;;;;;;;;;5032234;28;20089;-81
2022/08/25 09:33:47;;;;;;;0.00;0.00;;;;;;;;;;5031748;28;20076;-81
2022/08/25 09:36:13;;;;;;;0.00;0.00;;;;;;;;;;5027922;28;20523;-80
2022/08/25 09:38:39;;;;;;;0.00;0.00;;;;;;;;;;5031383;28;20083;-80
2022/08/25 09:41:06;;;;;;;0.00;0.00;;;;;;;;;;5032532;28;20069;-80
2022/08/25 09:43:43;;;;;;;0.00;0.00;;;;;;;;;;5032737;28;20051;-80
2022/08/25 09:46:11;;;;;;;0.00;0.00;;;;;;;;;;5032277;28;20042;-80
2022/08/25 09:48:48;;;;;;;0.00;0.00;;;;;;;;;;5032754;28;20037;-80
2022/08/25 09:51:20;;;;;;;0.00;0.00;;;;;;;;;;5032366;28;20048;-81
2022/08/25 09:53:51;;;;;;;0.00;0.00;;;;;;;;;;5032699;28;20080;-81
2022/08/25 09:56:20;;;;;;;0.00;0.00;;;;;;;;;;5032394;28;20366;-81
2022/08/25 09:58:46;;;;;;;0.00;0.00;;;;;;;;;;5031175;28;20042;-87
2022/08/25 10:01:14;;;;;;;0.00;0.00;;;;;;;;;;5032383;28;20038;-81
2022/08/25 10:04:00;;;;;;;0.00;0.00;;;;;;;;;;5014634;28;20033;-81
2022/08/25 10:06:33;;;;;;;0.00;0.00;;;;;;;;;;5032096;28;20072;-81
2022/08/25 10:09:02;;;;;;;0.00;0.00;;;;;;;;;;5032289;28;20046;-81
2022/08/25 10:11:37;;;;;;;0.00;0.00;;;;;;;;;;5032012;28;20121;-81
2022/08/25 10:14:06;;;;;;;0.00;0.00;;;;;;;;;;5035754;28;20048;-81
2022/08/25 10:16:32;;;;;;;0.00;0.00;;;;;;;;;;5035835;28;20041;-81
2022/08/25 10:19:06;;;;;;;0.00;0.00;;;;;;;;;;5036128;28;20044;-81
2022/08/25 10:21:33;;;;;;;0.00;0.00;;;;;;;;;;5016976;28;20087;-81
2022/08/25 10:24:01;;;;;;;0.00;0.00;;;;;;;;;;5034472;28;20045;-81
2022/08/25 10:26:37;;;;;;;0.00;0.00;;;;;;;;;;5035788;28;20464;-81
2022/08/25 10:29:14;;;;;;;0.00;0.00;;;;;;;;;;5035689;28;20124;-81
2022/08/25 10:31:54;;;;;;;0.00;0.00;;;;;;;;;;5035528;28;20400;-80
2022/08/25 10:34:33;;;;;;;0.00;0.00;;;;;;;;;;5034315;28;20041;-81
2022/08/25 10:36:59;;;;;;;0.00;0.00;;;;;;;;;;5035472;28;20125;-81
2022/08/25 10:39:24;;;;;;;0.00;0.00;;;;;;;;;;5035538;28;20060;-81
2022/08/25 10:41:59;;;;;;;0.00;0.00;;;;;;;;;;5035395;28;20484;-81
2022/08/25 10:47:47;;;;;;;0.00;0.00;;;;;;;;;;5035334;28;20041;-81
2022/08/25 10:50:29;;;;;;;0.00;0.00;;;;;;;;;;5035550;28;20042;-81
2022/08/25 10:53:13;;;;;;;0.00;0.00;;;;;;;;;;5035054;28;20034;-81
2022/08/25 10:55:48;;;;;;;0.00;0.00;;;;;;;;;;5035041;28;20099;-81
2022/08/25 10:58:17;;;;;;;0.00;0.00;;;;;;;;;;5035324;28;20042;-81
2022/08/25 11:00:47;;;;;;;0.00;0.00;;;;;;;;;;5033776;28;20049;-81
2022/08/25 11:03:29;;;;;;;0.00;0.00;;;;;;;;;;5034889;28;20041;-81
2022/08/25 11:06:00;;;;;;;0.00;0.00;;;;;;;;;;5035015;28;20034;-81
2022/08/25 11:08:32;;;;;;;0.00;0.00;;;;;;;;;;5035065;28;20042;-81
2022/08/25 11:10:58;;;;;;;0.00;0.00;;;;;;;;;;5034876;28;20072;-81
2022/08/25 11:13:37;;;;;;;0.00;0.00;;;;;;;;;;5033859;28;20041;-81
2022/08/25 11:16:10;;;;;;;0.00;0.00;;;;;;;;;;5034747;28;20048;-81
2022/08/25 11:18:39;;;;;;;0.00;0.00;;;;;;;;;;5035045;28;20046;-81
2022/08/25 11:21:04;;;;;;;0.00;0.00;;;;;;;;;;5034585;28;20037;-81
2022/08/25 11:23:34;;;;;;;0.00;0.00;;;;;;;;;;5034434;28;20056;-81
2022/08/25 11:26:11;;;;;;;0.00;0.00;;;;;;;;;;5033376;28;20045;-81
2022/08/25 11:28:46;;;;;;;0.00;0.00;;;;;;;;;;5035032;28;20151;-81
2022/08/25 11:31:14;;;;;;;0.00;0.00;;;;;;;;;;5034114;28;20374;-81
2022/08/25 11:33:40;;;;;;;0.00;0.00;;;;;;;;;;5034654;28;20056;-81
2022/08/25 11:36:24;;;;;;;0.00;0.00;;;;;;;;;;5033185;28;20038;-81
2022/08/25 11:39:08;;;;;;;0.00;0.00;;;;;;;;;;5033400;28;20041;-81
2022/08/25 11:41:34;;;;;;;0.00;0.00;;;;;;;;;;5032753;28;20103;-81
2022/08/25 11:44:00;;;;;;;0.00;0.00;;;;;;;;;;5032933;28;20409;-81
2022/08/25 11:46:27;;;;;;;0.00;0.00;;;;;;;;;;5034230;28;20147;-81
2022/08/25 11:49:13;;;;;;;0.00;0.00;;;;;;;;;;5034049;28;20407;-81
2022/08/25 11:51:45;;;;;;;0.00;0.00;;;;;;;;;;5032919;28;20061;-81
2022/08/25 11:54:27;;;;;;;0.00;0.00;;;;;;;;;;5034018;28;20504;-81
2022/08/25 11:56:58;;;;;;;0.00;0.00;;;;;;;;;;5032599;28;20046;-81
2022/08/25 11:59:43;;;;;;;0.00;0.00;;;;;;;;;;5033972;28;20043;-81
2022/08/25 12:02:27;;;;;;;0.00;0.00;;;;;;;;;;5033951;28;20437;-81
2022/08/25 12:04:54;;;;;;;0.00;0.00;;;;;;;;;;5032686;28;20117;-81
2022/08/25 12:07:50;;;;;;;0.00;0.00;;;;;;;;;;5032681;28;20053;-80
2022/08/25 12:10:22;;;;;;;0.00;0.00;;;;;;;;;;5033901;28;20218;-80
2022/08/25 12:12:48;;;;;;;0.00;0.00;;;;;;;;;;5033678;28;20076;-80
2022/08/25 12:15:26;;;;;;;0.00;0.00;;;;;;;;;;5033935;28;20122;-81
2022/08/25 12:18:08;;;;;;;0.00;0.00;;;;;;;;;;5032089;28;20138;-81
2022/08/25 12:20:52;;;;;;;0.00;0.00;;;;;;;;;;5033909;28;20037;-81
2022/08/25 12:23:30;;;;;;;0.00;0.00;;;;;;;;;;5033567;28;20049;-81
2022/08/25 12:25:57;;;;;;;0.00;0.00;;;;;;;;;;5033672;28;20033;-80
2022/08/25 12:28:33;;;;;;;0.00;0.00;;;;;;;;;;5033516;28;20041;-81
2022/08/25 12:31:03;;;;;;;0.00;0.00;;;;;;;;;;5033308;28;20068;-80
2022/08/25 12:33:32;;;;;;;0.00;0.00;;;;;;;;;;5031898;28;20053;-80
2022/08/25 12:36:03;;;;;;;0.00;0.00;;;;;;;;;;5033056;28;20048;-80
2022/08/25 12:38:30;;;;;;;0.00;0.00;;;;;;;;;;5033088;28;20124;-79
2022/08/25 12:41:03;;;;;;;0.00;0.00;;;;;;;;;;5032003;28;20056;-80
2022/08/25 12:43:30;;;;;;;0.00;0.00;;;;;;;;;;5031803;28;20049;-79
2022/08/25 12:46:26;;;;;;;0.00;0.00;;;;;;;;;;5032108;28;20041;-80
2022/08/25 12:48:53;;;;;;;;;;;;;;;;;;5033133;28;20511;-80
2022/08/25 12:51:20;;;;;;;0.00;0.00;;;;;;;;;;5032166;28;19917;-80
2022/08/25 12:53:48;;;;;;;0.00;0.00;;;;;;;;;;5033032;28;20039;-80
2022/08/25 12:56:26;;;;;;;0.00;0.00;;;;;;;;;;5033172;28;20044;-80
2022/08/25 12:59:02;;;;;;;0.00;0.00;;;;;;;;;;5033034;28;20045;-80
2022/08/25 13:01:29;;;;;;;0.00;0.00;;;;;;;;;;5033182;28;20042;-81
2022/08/25 13:04:13;;;;;;;0.30;0.15;;;;;;;;;;5032755;28;20045;-78
2022/08/25 13:06:39;;;;;;;0.00;0.00;;;;;;;;;;5033111;28;20091;-79
2022/08/25 13:09:21;;;;;;;0.00;0.00;;;;;;;;;;5032900;28;20069;-79
2022/08/25 13:12:01;;;;;;;0.00;0.00;;;;;;;;;;5032784;28;20175;-80
2022/08/25 13:14:38;;;;;;;0.00;0.00;;;;;;;;;;5033060;28;20041;-79
2022/08/25 13:17:04;;;;;;;0.00;0.00;;;;;;;;;;5032442;28;20439;-80
2022/08/25 13:19:30;;;;;;;0.00;0.00;;;;;;;;;;5033014;28;20369;-80
2022/08/25 13:21:57;;;;;;;0.00;0.00;;;;;;;;;;5031339;28;20095;-79
2022/08/25 13:24:28;;;;;;;0.00;0.00;;;;;;;;;;5032732;28;20033;-80
2022/08/25 13:26:56;;;;;;;0.15;0.00;;;;;;;;;;5032532;28;20046;-80
2022/08/25 13:29:24;;;;;;;0.00;0.00;;;;;;;;;;5031091;28;20064;-79
2022/08/25 13:31:56;;;;;;;0.00;0.00;;;;;;;;;;5031526;28;20405;-79
2022/08/25 13:34:31;;;;;;;0.00;0.00;;;;;;;;;;5031152;28;20531;-80
2022/08/25 13:39:48;;;;;;;0.00;0.00;;;;;;;;;;5032766;28;20120;-79
2022/08/25 13:42:15;;;;;;;0.00;0.00;;;;;;;;;;5031045;28;20457;-80
2022/08/25 13:44:42;;;;;;;0.00;0.00;;;;;;;;;;5032755;28;20380;-80
2022/08/25 13:47:14;;;;;;;0.00;0.00;;;;;;;;;;5031863;28;20073;-79
2022/08/25 13:49:41;;;;;;;0.00;0.00;;;;;;;;;;5035103;28;20048;-80
2022/08/25 13:52:14;;;;;;;0.00;0.00;;;;;;;;;;5036305;28;20049;-79
2022/08/25 13:54:42;;;;;;;0.00;0.00;;;;;;;;;;5036455;28;20041;-79
2022/08/25 13:57:14;;;;;;;0.00;0.00;;;;;;;;;;5035236;28;20065;-80
2022/08/25 13:59:41;;;;;;;0.00;0.00;;;;;;;;;;5036146;28;20069;-79
2022/08/25 14:02:08;;;;;;;0.00;0.00;;;;;;;;;;5036289;28;20170;-79
2022/08/25 14:04:40;;;;;;;0.00;0.00;;;;;;;;;;5036067;28;20037;-79
2022/08/25 14:07:21;;;;;;;0.00;0.00;;;;;;;;;;5035144;28;20132;-79
2022/08/25 14:09:59;;;;;;;0.00;0.00;;;;;;;;;;5035746;28;20496;-79
2022/08/25 14:12:34;;;;;;;0.00;0.00;;;;;;;;;;5034703;28;20041;-80
2022/08/25 14:15:21;;;;;;;0.00;0.00;;;;;;;;;;5036153;28;20056;-79
2022/08/25 14:18:10;;;;;;;0.00;0.00;;;;;;;;;;5035901;28;20387;-79
2022/08/25 14:20:36;;;;;;;0.00;0.00;;;;;;;;;;5029838;28;20045;-79
2022/08/25 14:23:07;;;;;;;0.00;0.00;;;;;;;;;;5035511;28;20087;-79
2022/08/25 14:25:34;;;;;;;0.00;0.00;;;;;;;;;;5034515;28;20111;-79
2022/08/25 14:28:02;;;;;;;0.00;0.00;;;;;;;;;;5034263;28;20049;-79
2022/08/25 14:30:28;;;;;;;0.00;0.00;;;;;;;;;;5035543;28;20057;-79
2022/08/25 14:32:55;;;;;;;0.00;0.00;;;;;;;;;;5034032;28;20057;-79
2022/08/25 14:35:21;;;;;;;0.00;0.00;;;;;;;;;;5035774;28;20049;-79
2022/08/25 14:37:48;;;;;;;0.00;0.00;;;;;;;;;;5035185;28;20045;-79
2022/08/25 14:40:18;;;;;;;0.52;0.00;;;;;;;;;;5034228;28;20044;-79
2022/08/25 14:42:44;;;;;;;0.00;0.00;;;;;;;;;;5017628;28;20046;-79
2022/08/25 14:45:11;;;;;;;0.00;0.00;;;;;;;;;;5033966;28;20046;-79
2022/08/25 14:47:37;;;;;;;0.00;0.00;;;;;;;;;;5035387;28;20041;-79
2022/08/25 14:50:03;;;;;;;0.00;0.00;;;;;;;;;;5017571;28;20392;-79
2022/08/25 14:52:29;;;;;;;0.15;0.15;;;;;;;;;;5034126;28;20072;-80
2022/08/25 14:54:56;;;;;;;0.00;0.00;;;;;;;;;;5035015;28;20422;-79
2022/08/25 14:57:22;;;;;;;0.00;0.00;;;;;;;;;;5035354;28;20037;-81
2022/08/25 14:59:49;;;;;;;0.00;0.00;;;;;;;;;;5034559;28;20040;-80
2022/08/25 15:02:19;;;;;;;0.00;0.00;;;;;;;;;;5034109;28;20389;-80
2022/08/25 15:04:49;;;;;;;0.00;0.00;;;;;;;;;;5033551;28;20041;-79
2022/08/25 15:09:59;;;;;;;0.00;0.00;;;;;;;;;;5035058;28;20041;-79